Time;durP1;ratioP1;P1;durP2;ratioP2;P2;SDS_P1;SDS_P2;PMS_P1;PMS_P2;Temp;Humidity;BMP_temperature;BMP_pressure;BME280_temperature;BME280_humidity;BME280_pressure;Samples;Min_cycle;Max_cycle;Signal;HPM_P1;HPM_P2
2023/08/22 00:00:10;;;;;;;18.88;10.57;;;18.30;99.90;;;;;;5096604;28;20114;-72
2023/08/22 00:02:36;;;;;;;19.02;9.73;;;18.30;99.90;;;;;;5109316;28;20028;-70
2023/08/22 00:05:03;;;;;;;20.33;10.48;;;18.30;99.90;;;;;;5098859;28;20031;-69
2023/08/22 00:07:28;;;;;;;19.65;10.48;;;18.30;99.90;;;;;;5102534;28;20027;-67
2023/08/22 00:09:54;;;;;;;19.90;9.75;;;18.30;99.90;;;;;;5106105;28;20024;-68
2023/08/22 00:12:19;;;;;;;21.05;10.32;;;18.30;99.90;;;;;;5095466;28;20047;-68
2023/08/22 00:14:46;;;;;;;19.58;10.98;;;18.30;99.90;;;;;;5108177;28;20023;-70
2023/08/22 00:17:11;;;;;;;20.45;11.02;;;18.30;99.90;;;;;;5099755;28;20107;-71
2023/08/22 00:19:38;;;;;;;21.15;10.68;;;18.30;99.90;;;;;;5099644;28;20115;-69
2023/08/22 00:22:04;;;;;;;22.02;11.32;;;18.30;99.90;;;;;;5107602;28;20332;-70
2023/08/22 00:24:30;;;;;;;24.48;11.60;;;18.20;99.90;;;;;;5095787;28;20069;-68
2023/08/22 00:26:57;;;;;;;24.10;12.20;;;18.20;99.90;;;;;;5106779;28;20664;-70
2023/08/22 00:29:22;;;;;;;22.30;12.18;;;18.20;99.90;;;;;;5101075;28;20024;-68
2023/08/22 00:31:48;;;;;;;24.90;13.43;;;18.10;99.90;;;;;;5098352;28;20399;-69
2023/08/22 00:34:14;;;;;;;27.17;13.20;;;18.10;99.90;;;;;;5108785;28;20020;-68
2023/08/22 00:36:40;;;;;;;23.55;13.43;;;18.10;99.90;;;;;;5095601;28;20366;-68
2023/08/22 00:39:05;;;;;;;25.52;13.98;;;18.00;99.90;;;;;;5105848;28;20467;-68
2023/08/22 00:41:32;;;;;;;26.85;15.60;;;18.00;99.90;;;;;;5102489;28;20035;-68
2023/08/22 00:43:58;;;;;;;29.27;16.35;;;18.00;99.90;;;;;;5097947;28;20445;-68
2023/08/22 00:46:25;;;;;;;30.05;16.85;;;18.00;99.90;;;;;;5108624;28;20104;-67
2023/08/22 00:48:52;;;;;;;28.33;17.50;;;18.00;99.90;;;;;;5096953;28;20039;-68
2023/08/22 00:51:17;;;;;;;29.90;18.05;;;18.00;99.90;;;;;;5103508;28;20507;-67
2023/08/22 00:53:44;;;;;;;28.63;18.40;;;18.00;99.90;;;;;;5104097;28;20454;-68
2023/08/22 00:56:09;;;;;;;30.40;16.98;;;18.00;99.90;;;;;;5098541;28;20475;-67
2023/08/22 00:58:36;;;;;;;27.25;16.63;;;18.10;99.90;;;;;;5112266;28;20039;-68
2023/08/22 01:01:02;;;;;;;25.45;16.17;;;18.10;99.90;;;;;;5102373;28;20172;-70
2023/08/22 01:03:28;;;;;;;29.88;16.73;;;18.00;99.90;;;;;;5106250;28;20469;-70
2023/08/22 01:05:59;;;;;;;29.02;17.50;;;18.00;99.90;;;;;;5109381;28;20016;-68
2023/08/22 01:08:31;;;;;;;27.90;16.15;;;18.10;99.90;;;;;;5099116;28;20085;-67
2023/08/22 01:11:02;;;;;;;28.63;15.45;;;18.10;99.90;;;;;;5110144;28;20044;-69
2023/08/22 01:13:33;;;;;;;25.05;14.95;;;18.10;99.90;;;;;;5105555;28;20030;-70
2023/08/22 01:15:59;;;;;;;27.15;15.75;;;18.10;99.90;;;;;;5101422;28;20028;-69
2023/08/22 01:18:26;;;;;;;25.90;14.75;;;18.20;99.90;;;;;;5112483;28;20034;-68
2023/08/22 01:20:51;;;;;;;28.23;15.85;;;18.10;99.90;;;;;;5100310;28;20023;-68
2023/08/22 01:23:17;;;;;;;26.98;15.80;;;18.10;99.90;;;;;;5106966;28;20039;-68
2023/08/22 01:25:43;;;;;;;26.17;14.70;;;18.10;99.90;;;;;;5107169;28;20035;-68
2023/08/22 01:28:17;;;;;;;24.92;14.02;;;18.00;99.90;;;;;;5098984;28;20127;-67
2023/08/22 01:30:46;;;;;;;24.83;14.18;;;18.10;99.90;;;;;;5098688;28;20421;-68
2023/08/22 01:33:17;;;;;;;29.63;16.17;;;18.10;99.90;;;;;;5107540;28;20028;-67
2023/08/22 01:35:49;;;;;;;24.58;14.50;;;18.00;99.90;;;;;;5107252;28;20059;-69
2023/08/22 01:38:17;;;;;;;23.13;12.45;;;18.00;99.90;;;;;;5098795;27;20028;-68
2023/08/22 01:40:43;;;;;;;25.25;13.52;;;17.90;99.90;;;;;;5098799;28;20032;-67
2023/08/22 01:43:09;;;;;;;25.80;13.63;;;17.90;99.90;;;;;;5107812;28;20032;-68
2023/08/22 01:45:36;;;;;;;26.80;14.73;;;17.80;99.90;;;;;;5104828;28;20114;-67
2023/08/22 01:48:02;;;;;;;31.25;14.50;;;17.70;99.90;;;;;;5100490;28;20024;-67
2023/08/22 01:50:27;;;;;;;24.80;14.40;;;17.70;99.90;;;;;;5111211;28;20039;-69
2023/08/22 01:52:54;;;;;;;30.40;15.45;;;17.70;99.90;;;;;;5099853;28;20348;-67
2023/08/22 01:55:20;;;;;;;24.40;14.63;;;17.60;99.90;;;;;;5106434;28;20051;-66
2023/08/22 01:57:45;;;;;;;25.58;14.55;;;17.60;99.90;;;;;;5107216;28;20058;-67
2023/08/22 02:00:12;;;;;;;29.20;14.85;;;17.60;99.90;;;;;;5098935;28;20239;-68
2023/08/22 02:02:37;;;;;;;28.60;14.43;;;17.50;99.90;;;;;;5111463;28;20521;-68
2023/08/22 02:05:03;;;;;;;24.55;14.27;;;17.50;99.90;;;;;;5101010;28;20015;-67
2023/08/22 02:07:29;;;;;;;21.83;13.85;;;17.50;99.90;;;;;;5103431;28;20032;-69
2023/08/22 02:09:54;;;;;;;24.33;13.65;;;17.50;99.90;;;;;;5106985;28;20024;-68
2023/08/22 02:12:20;;;;;;;26.60;14.75;;;17.50;99.90;;;;;;5097750;28;20495;-67
2023/08/22 02:14:46;;;;;;;25.95;14.25;;;17.50;99.90;;;;;;5110656;28;20104;-68
2023/08/22 02:17:11;;;;;;;24.00;14.23;;;17.50;99.90;;;;;;5101826;28;20050;-69
2023/08/22 02:19:37;;;;;;;27.88;16.13;;;17.50;99.90;;;;;;5103547;28;20426;-68
2023/08/22 02:22:02;;;;;;;26.88;15.85;;;17.50;99.90;;;;;;5109091;28;20819;-68
2023/08/22 02:24:28;;;;;;;27.38;14.73;;;17.50;99.90;;;;;;5097654;28;20031;-68
2023/08/22 02:26:54;;;;;;;27.35;15.38;;;17.50;99.90;;;;;;5109317;28;20023;-67
2023/08/22 02:29:19;;;;;;;27.63;15.30;;;17.50;99.90;;;;;;5103034;28;20111;-68
2023/08/22 02:31:45;;;;;;;27.90;17.15;;;17.50;99.90;;;;;;5102011;28;20085;-67
2023/08/22 02:34:10;;;;;;;27.17;16.17;;;17.40;99.90;;;;;;5109979;28;20455;-70
2023/08/22 02:36:36;;;;;;;26.05;16.10;;;17.40;99.90;;;;;;5097709;28;20474;-68
2023/08/22 02:39:03;;;;;;;26.38;16.63;;;17.40;99.90;;;;;;5107897;28;20039;-69
2023/08/22 02:41:29;;;;;;;30.38;17.92;;;17.40;99.90;;;;;;5104167;28;20111;-68
2023/08/22 02:43:54;;;;;;;26.52;16.63;;;17.40;99.90;;;;;;5099026;28;20107;-68
2023/08/22 02:46:20;;;;;;;25.02;16.05;;;17.40;99.90;;;;;;5110682;28;20024;-68
2023/08/22 02:48:45;;;;;;;27.42;16.70;;;17.30;99.90;;;;;;5097780;28;20020;-67
2023/08/22 02:51:11;;;;;;;25.88;16.25;;;17.30;99.90;;;;;;5106504;28;20036;-68
2023/08/22 02:53:37;;;;;;;26.50;15.82;;;17.30;99.90;;;;;;5104693;28;20059;-67
2023/08/22 02:56:04;;;;;;;27.40;15.75;;;17.30;99.90;;;;;;5098803;28;20027;-68
2023/08/22 02:58:30;;;;;;;28.00;16.60;;;17.30;99.90;;;;;;5110409;28;20466;-67
2023/08/22 03:00:56;;;;;;;27.08;15.68;;;17.30;99.90;;;;;;5099194;28;20012;-67
2023/08/22 03:03:22;;;;;;;27.42;16.15;;;17.30;99.90;;;;;;5104212;28;20154;-68
2023/08/22 03:05:48;;;;;;;25.60;16.23;;;17.30;99.90;;;;;;5106476;28;20019;-68
2023/08/22 03:08:13;;;;;;;29.60;17.13;;;17.30;99.90;;;;;;5097335;28;20111;-67
2023/08/22 03:10:40;;;;;;;25.65;16.67;;;17.30;99.90;;;;;;5110173;28;20129;-69
2023/08/22 03:13:06;;;;;;;27.63;16.98;;;17.30;99.90;;;;;;5100097;28;20031;-69
2023/08/22 03:15:31;;;;;;;29.67;15.65;;;17.30;99.90;;;;;;5102891;28;20553;-67
2023/08/22 03:17:57;;;;;;;29.98;16.30;;;17.30;99.90;;;;;;5106716;28;20031;-68
2023/08/22 03:20:23;;;;;;;28.38;17.05;;;17.30;99.90;;;;;;5096651;28;20379;-69
2023/08/22 03:22:48;;;;;;;27.98;16.52;;;17.30;99.90;;;;;;5109084;28;20031;-67
2023/08/22 03:25:14;;;;;;;25.60;15.48;;;17.30;99.90;;;;;;5101091;28;20036;-67
2023/08/22 03:27:39;;;;;;;28.15;16.15;;;17.30;99.90;;;;;;5101843;28;20062;-67
2023/08/22 03:30:06;;;;;;;30.67;16.77;;;17.20;99.90;;;;;;5108234;28;20103;-67
2023/08/22 03:32:31;;;;;;;27.83;15.82;;;17.30;99.90;;;;;;5096307;28;20024;-68
2023/08/22 03:34:57;;;;;;;26.90;16.30;;;17.30;99.90;;;;;;5107305;28;20385;-67
2023/08/22 03:37:22;;;;;;;26.90;16.40;;;17.30;99.90;;;;;;5102197;28;20027;-69
2023/08/22 03:39:48;;;;;;;27.95;15.80;;;17.20;99.90;;;;;;5100170;28;20448;-67
2023/08/22 03:42:14;;;;;;;28.67;17.13;;;17.30;99.90;;;;;;5109010;28;20490;-67
2023/08/22 03:44:41;;;;;;;26.77;16.50;;;17.20;99.90;;;;;;5096311;28;20058;-68
2023/08/22 03:47:06;;;;;;;27.63;16.67;;;17.20;99.90;;;;;;5106008;28;20024;-67
2023/08/22 03:49:32;;;;;;;26.48;15.80;;;17.20;99.90;;;;;;5103275;28;20034;-70
2023/08/22 03:51:57;;;;;;;27.55;15.65;;;17.20;99.90;;;;;;5098752;28;20051;-68
2023/08/22 03:54:23;;;;;;;26.83;16.70;;;17.20;99.90;;;;;;5099058;28;20050;-68
2023/08/22 03:56:48;;;;;;;28.20;17.40;;;17.20;99.90;;;;;;5102142;28;20098;-66
2023/08/22 03:59:14;;;;;;;27.55;16.38;;;17.10;99.90;;;;;;5103630;28;20028;-66
2023/08/22 04:01:39;;;;;;;28.13;16.45;;;17.10;99.90;;;;;;5101273;28;20103;-67
2023/08/22 04:04:05;;;;;;;28.02;15.07;;;17.10;99.90;;;;;;5103177;28;20367;-67
2023/08/22 04:06:30;;;;;;;28.40;16.77;;;17.10;99.90;;;;;;5101253;28;20470;-68
2023/08/22 04:08:56;;;;;;;28.67;17.60;;;17.10;99.90;;;;;;5101555;28;20033;-69
2023/08/22 04:11:22;;;;;;;26.70;16.45;;;17.00;99.90;;;;;;5103566;28;20042;-67
2023/08/22 04:13:47;;;;;;;25.83;16.05;;;17.00;99.90;;;;;;5102280;28;20028;-69
2023/08/22 04:16:13;;;;;;;25.48;15.73;;;17.00;99.90;;;;;;5101692;28;20028;-68
2023/08/22 04:18:38;;;;;;;30.00;17.25;;;17.00;99.90;;;;;;5103559;28;20031;-67
2023/08/22 04:21:04;;;;;;;26.52;15.90;;;17.00;99.90;;;;;;5101443;28;20035;-67
2023/08/22 04:23:29;;;;;;;26.63;15.93;;;17.00;99.90;;;;;;5101041;28;20115;-68
2023/08/22 04:25:55;;;;;;;23.13;14.50;;;17.00;99.90;;;;;;5105099;28;20035;-67
2023/08/22 04:28:21;;;;;;;26.90;16.67;;;17.00;99.90;;;;;;5101006;28;20027;-68
2023/08/22 04:30:46;;;;;;;27.45;17.33;;;16.90;99.90;;;;;;5104401;28;20081;-67
2023/08/22 04:33:12;;;;;;;27.10;16.55;;;16.90;99.90;;;;;;5107282;28;20032;-68
2023/08/22 04:35:37;;;;;;;29.55;17.67;;;16.90;99.90;;;;;;5105635;28;20486;-67
2023/08/22 04:38:04;;;;;;;30.05;16.92;;;16.80;99.90;;;;;;5107210;28;20066;-68
2023/08/22 04:40:29;;;;;;;32.28;17.05;;;16.80;99.90;;;;;;5106341;28;20032;-66
2023/08/22 04:42:55;;;;;;;30.20;17.30;;;16.80;99.90;;;;;;5105124;28;20056;-67
2023/08/22 04:45:20;;;;;;;30.15;16.55;;;16.80;99.90;;;;;;5107172;28;20054;-68
2023/08/22 04:47:46;;;;;;;27.25;15.02;;;16.80;99.90;;;;;;5105468;28;20024;-68
2023/08/22 04:50:11;;;;;;;26.63;14.38;;;16.80;99.90;;;;;;5105525;28;20488;-67
2023/08/22 04:52:37;;;;;;;25.05;13.73;;;16.80;99.90;;;;;;5107272;28;20417;-68
2023/08/22 04:55:04;;;;;;;26.38;14.82;;;16.80;99.90;;;;;;5105299;28;20123;-67
2023/08/22 04:57:30;;;;;;;21.20;12.68;;;16.90;99.90;;;;;;5105350;28;20475;-68
2023/08/22 04:59:56;;;;;;;24.38;13.02;;;16.90;99.90;;;;;;5106738;28;20103;-66
2023/08/22 05:02:22;;;;;;;22.48;12.68;;;16.90;99.90;;;;;;5104871;28;20012;-67
2023/08/22 05:04:48;;;;;;;23.02;13.23;;;16.90;99.90;;;;;;5106060;28;20023;-68
2023/08/22 05:07:13;;;;;;;21.90;13.00;;;17.00;99.90;;;;;;5106432;28;20020;-68
2023/08/22 05:09:39;;;;;;;26.50;13.30;;;17.00;99.90;;;;;;5104694;28;20024;-67
2023/08/22 05:12:05;;;;;;;26.65;12.70;;;17.10;99.90;;;;;;5105859;28;20043;-66
2023/08/22 05:14:33;;;;;;;24.15;12.55;;;17.20;99.90;;;;;;5105718;28;20749;-67
2023/08/22 05:16:58;;;;;;;24.90;13.18;;;17.30;99.90;;;;;;5103950;28;20065;-67
2023/08/22 05:19:24;;;;;;;26.35;12.40;;;17.40;99.90;;;;;;5106297;28;20020;-67
2023/08/22 05:21:49;;;;;;;22.95;11.65;;;17.50;99.90;;;;;;5105254;28;20031;-67
2023/08/22 05:24:15;;;;;;;19.88;11.63;;;17.50;99.90;;;;;;5103373;28;20081;-67
2023/08/22 05:26:40;;;;;;;20.85;10.88;;;17.60;99.90;;;;;;5106102;28;20024;-66
2023/08/22 05:29:06;;;;;;;20.92;10.57;;;17.60;99.90;;;;;;5104563;28;20032;-67
2023/08/22 05:31:32;;;;;;;19.77;10.40;;;17.80;99.90;;;;;;5103325;28;20039;-67
2023/08/22 05:33:58;;;;;;;23.50;10.68;;;17.90;99.90;;;;;;5106360;28;20509;-67
2023/08/22 05:36:23;;;;;;;21.20;10.45;;;18.00;99.90;;;;;;5104695;28;20028;-66
2023/08/22 05:38:49;;;;;;;20.58;10.88;;;18.00;99.90;;;;;;5106968;28;20020;-65
2023/08/22 05:41:16;;;;;;;19.20;9.82;;;18.10;99.90;;;;;;5115571;28;20100;-67
2023/08/22 05:43:42;;;;;;;18.67;10.45;;;18.10;99.90;;;;;;5103777;28;20094;-66
2023/08/22 05:46:08;;;;;;;23.33;10.85;;;18.10;99.90;;;;;;5112744;28;20059;-67
2023/08/22 05:48:33;;;;;;;19.88;10.05;;;18.30;99.90;;;;;;5115867;28;20030;-66
2023/08/22 05:51:01;;;;;;;20.15;9.68;;;18.30;99.90;;;;;;5115490;28;20031;-67
2023/08/22 05:53:27;;;;;;;21.15;10.65;;;18.50;99.90;;;;;;5115490;28;20040;-67
2023/08/22 05:55:52;;;;;;;18.58;9.60;;;18.60;99.90;;;;;;5115804;28;20032;-67
2023/08/22 05:58:18;;;;;;;14.68;8.80;;;18.80;99.90;;;;;;5114130;28;20027;-66
2023/08/22 06:00:44;;;;;;;17.48;9.32;;;18.80;99.90;;;;;;5115308;28;20031;-68
2023/08/22 06:03:09;;;;;;;19.83;9.63;;;18.90;99.90;;;;;;5115636;28;20413;-68
2023/08/22 06:05:35;;;;;;;21.00;9.80;;;18.90;99.90;;;;;;5115414;28;20027;-67
2023/08/22 06:08:01;;;;;;;17.27;9.43;;;18.90;99.90;;;;;;5115175;28;20020;-68
2023/08/22 06:10:26;;;;;;;17.15;9.48;;;18.90;99.90;;;;;;5115006;28;20035;-67
2023/08/22 06:12:52;;;;;;;18.98;9.88;;;18.90;99.90;;;;;;5114632;28;20039;-68
2023/08/22 06:15:17;;;;;;;20.00;9.88;;;18.90;99.90;;;;;;5115415;28;20471;-67
2023/08/22 06:17:43;;;;;;;21.30;9.80;;;18.90;99.90;;;;;;5115257;28;20107;-67
2023/08/22 06:20:09;;;;;;;20.23;10.38;;;19.00;99.90;;;;;;5114821;28;20024;-68
2023/08/22 06:22:34;;;;;;;19.08;10.02;;;19.10;99.90;;;;;;5114735;28;20024;-67
2023/08/22 06:25:00;;;;;;;19.70;10.73;;;19.10;99.90;;;;;;5114834;28;20015;-67
2023/08/22 06:27:25;;;;;;;19.25;10.45;;;19.20;99.90;;;;;;5115157;28;20082;-67
2023/08/22 06:29:51;;;;;;;24.48;10.77;;;19.30;99.90;;;;;;5115001;28;20028;-69
2023/08/22 06:32:21;;;;;;;22.45;10.88;;;19.30;99.90;;;;;;5114666;28;20069;-68
2023/08/22 06:34:46;;;;;;;21.23;10.88;;;19.40;99.90;;;;;;5114776;28;20027;-69
2023/08/22 06:37:12;;;;;;;21.05;10.00;;;19.60;99.90;;;;;;5114804;28;20106;-67
2023/08/22 06:39:39;;;;;;;19.63;10.45;;;19.80;99.90;;;;;;5114596;28;20020;-67
2023/08/22 06:42:05;;;;;;;24.65;10.93;;;19.90;99.90;;;;;;5102705;28;20359;-68
2023/08/22 06:44:30;;;;;;;22.33;10.30;;;20.10;99.90;;;;;;5113773;28;20030;-67
2023/08/22 06:46:56;;;;;;;21.42;9.93;;;20.40;99.90;;;;;;5114320;28;20384;-67
2023/08/22 06:49:21;;;;;;;19.88;9.68;;;20.60;99.90;;;;;;5114412;28;20024;-68
2023/08/22 06:51:47;;;;;;;18.88;8.70;;;20.90;99.90;;;;;;5114056;28;20051;-69
2023/08/22 06:54:12;;;;;;;15.90;8.02;;;21.30;99.90;;;;;;5113918;28;20082;-67
2023/08/22 06:56:38;;;;;;;20.23;7.82;;;22.00;99.90;;;;;;5113799;28;20031;-68
2023/08/22 06:59:03;;;;;;;18.55;7.60;;;22.60;99.90;;;;;;5114001;28;20024;-68
2023/08/22 07:01:29;;;;;;;17.13;6.45;;;23.10;99.90;;;;;;5107445;28;20039;-67
2023/08/22 07:03:55;;;;;;;17.65;6.05;;;23.70;99.90;;;;;;5093744;28;20024;-67
2023/08/22 07:06:20;;;;;;;12.75;4.22;;;24.10;99.90;;;;;;5093282;28;20069;-67
2023/08/22 07:08:46;;;;;;;13.02;4.30;;;24.30;99.90;;;;;;5093502;28;20036;-67
2023/08/22 07:11:11;;;;;;;12.50;3.97;;;24.30;99.90;;;;;;5092008;28;20391;-67
2023/08/22 07:13:38;;;;;;;13.02;3.88;;;24.50;99.90;;;;;;5093539;28;20162;-67
2023/08/22 07:16:04;;;;;;;8.82;2.90;;;24.90;99.90;;;;;;5093451;28;20028;-67
2023/08/22 07:18:30;;;;;;;9.55;2.30;;;25.10;99.90;;;;;;5091875;28;20030;-67
2023/08/22 07:20:55;;;;;;;9.38;2.95;;;25.00;99.90;;;;;;5093352;28;20035;-68
2023/08/22 07:23:22;;;;;;;6.68;2.85;;;24.80;99.90;;;;;;5104290;28;20023;-67
2023/08/22 07:25:51;;;;;;;8.40;2.92;;;24.70;99.90;;;;;;5113815;28;20031;-68
2023/08/22 07:28:18;;;;;;;8.95;3.08;;;24.50;99.90;;;;;;5113453;28;20031;-67
2023/08/22 07:30:47;;;;;;;7.82;2.65;;;24.50;99.90;;;;;;5113900;28;20495;-68
2023/08/22 07:33:14;;;;;;;8.68;2.72;;;24.70;99.90;;;;;;5113204;28;20043;-68
2023/08/22 07:35:40;;;;;;;7.68;2.30;;;24.70;99.90;;;;;;5113188;28;20049;-68
2023/08/22 07:38:06;;;;;;;10.85;3.05;;;25.00;99.90;;;;;;5112774;28;20032;-68
2023/08/22 07:40:32;;;;;;;9.63;3.15;;;25.10;99.90;;;;;;5113275;28;20034;-68
2023/08/22 07:42:59;;;;;;;14.00;4.40;;;25.10;99.90;;;;;;5113238;28;20024;-68
2023/08/22 07:45:25;;;;;;;10.55;3.53;;;25.00;99.90;;;;;;5113436;28;20034;-68
2023/08/22 07:47:51;;;;;;;9.45;2.70;;;24.90;99.90;;;;;;5113142;28;20040;-68
2023/08/22 07:50:17;;;;;;;9.68;3.00;;;24.90;99.90;;;;;;5113247;28;20023;-68
2023/08/22 07:52:42;;;;;;;9.57;3.05;;;24.80;99.90;;;;;;5113357;28;20034;-68
2023/08/22 07:55:08;;;;;;;7.05;2.63;;;24.90;99.90;;;;;;5113320;28;20397;-68
2023/08/22 07:57:34;;;;;;;14.55;3.22;;;25.00;99.90;;;;;;5113444;28;20033;-68
2023/08/22 08:00:00;;;;;;;7.32;2.90;;;24.90;99.90;;;;;;5112012;28;20024;-68
2023/08/22 08:02:26;;;;;;;9.18;3.10;;;24.80;99.90;;;;;;5113042;28;20067;-68
2023/08/22 08:04:51;;;;;;;9.05;2.95;;;24.80;99.90;;;;;;5112041;28;20055;-68
2023/08/22 08:07:17;;;;;;;11.13;2.88;;;24.90;99.90;;;;;;5113010;28;20020;-68
2023/08/22 08:09:42;;;;;;;9.32;3.00;;;25.00;99.90;;;;;;5111975;28;20047;-68
2023/08/22 08:12:08;;;;;;;8.18;2.60;;;25.10;99.90;;;;;;5112352;28;20105;-69
2023/08/22 08:14:34;;;;;;;12.10;2.90;;;25.20;99.90;;;;;;5111616;28;20096;-68
2023/08/22 08:17:00;;;;;;;10.43;3.17;;;25.20;99.90;;;;;;5112585;28;20459;-69
2023/08/22 08:19:26;;;;;;;9.18;2.70;;;25.30;99.90;;;;;;5090223;28;20158;-68
2023/08/22 08:21:52;;;;;;;11.07;3.05;;;25.30;99.90;;;;;;5104351;28;20022;-69
2023/08/22 08:24:19;;;;;;;10.65;3.10;;;25.20;99.90;;;;;;5099710;28;20731;-69
2023/08/22 08:26:44;;;;;;;13.27;2.97;;;25.40;99.90;;;;;;5112571;28;20015;-68
2023/08/22 08:29:10;;;;;;;12.15;4.30;;;25.40;99.90;;;;;;5111287;28;20037;-68
2023/08/22 08:31:35;;;;;;;13.38;3.50;;;25.60;99.90;;;;;;5111833;28;20082;-70
2023/08/22 08:34:01;;;;;;;11.75;2.80;;;25.60;99.90;;;;;;5112507;28;20055;-69
2023/08/22 08:36:26;;;;;;;12.95;3.03;;;25.60;99.90;;;;;;5112745;28;20056;-69
2023/08/22 08:38:52;;;;;;;10.85;3.30;;;25.50;99.90;;;;;;5112651;28;20027;-69
2023/08/22 08:41:19;;;;;;;7.63;2.70;;;25.60;99.90;;;;;;5112090;28;20024;-70
2023/08/22 08:43:46;;;;;;;13.38;3.22;;;25.50;99.90;;;;;;5112201;28;20058;-69
2023/08/22 08:46:13;;;;;;;8.48;2.35;;;25.70;99.90;;;;;;5111690;28;20417;-68
2023/08/22 08:48:39;;;;;;;11.13;3.35;;;26.30;99.90;;;;;;5112791;28;20027;-69
2023/08/22 08:51:06;;;;;;;8.25;2.53;;;27.20;99.90;;;;;;5112760;28;20043;-68
2023/08/22 08:53:33;;;;;;;10.52;2.78;;;28.40;99.90;;;;;;5112067;28;20535;-68
2023/08/22 08:55:59;;;;;;;8.30;2.75;;;28.50;99.90;;;;;;5112782;28;20165;-69
2023/08/22 08:58:25;;;;;;;9.55;3.00;;;28.60;99.90;;;;;;5112423;28;20106;-66
2023/08/22 09:00:54;;;;;;;11.50;2.70;;;29.30;99.40;;;;;;5112772;28;20032;-68
2023/08/22 09:03:19;;;;;;;15.23;4.75;;;29.20;98.70;;;;;;5112046;28;20049;-67
2023/08/22 09:05:45;;;;;;;7.70;2.50;;;29.00;99.00;;;;;;5111940;28;20459;-67
2023/08/22 09:08:19;;;;;;;8.60;2.25;;;28.60;99.30;;;;;;5112407;28;20039;-67
2023/08/22 09:10:50;;;;;;;17.92;4.50;;;28.80;99.10;;;;;;5111659;28;20035;-68
2023/08/22 09:13:16;;;;;;;;;;;28.80;99.30;;;;;;5102653;28;20345;-70
2023/08/22 09:15:43;;;;;;;9.73;3.00;;;28.90;99.10;;;;;;5092048;28;19911;-68
2023/08/22 09:18:13;;;;;;;10.55;2.75;;;29.50;98.50;;;;;;5115045;28;20023;-68
2023/08/22 09:20:45;;;;;;;7.72;2.65;;;29.70;98.10;;;;;;5109371;28;20032;-68
2023/08/22 09:23:28;;;;;;;14.80;3.60;;;29.50;97.80;;;;;;5095304;28;20483;-69
2023/08/22 09:25:55;;;;;;;7.78;2.83;;;28.90;98.50;;;;;;5095888;28;20039;-69
2023/08/22 09:28:21;;;;;;;16.40;4.10;;;28.50;99.10;;;;;;5095657;28;20099;-68
2023/08/22 09:30:48;;;;;;;8.93;2.85;;;27.90;99.60;;;;;;5113755;28;20032;-70
2023/08/22 09:33:14;;;;;;;12.15;3.22;;;27.50;99.90;;;;;;5111131;28;20031;-68
2023/08/22 09:35:39;;;;;;;11.02;2.80;;;27.10;99.90;;;;;;5095392;28;20028;-68
2023/08/22 09:38:09;;;;;;;6.50;2.38;;;27.10;99.90;;;;;;5095203;28;20030;-68
2023/08/22 09:40:36;;;;;;;12.50;2.50;;;27.60;99.90;;;;;;5095386;28;20028;-68
2023/08/22 09:43:03;;;;;;;9.50;2.30;;;28.00;99.50;;;;;;5093718;28;20020;-68
2023/08/22 09:45:31;;;;;;;8.40;2.97;;;28.20;99.50;;;;;;5095060;28;20035;-69
2023/08/22 09:47:59;;;;;;;7.72;2.20;;;28.70;99.10;;;;;;5095462;28;20020;-69
2023/08/22 09:50:35;;;;;;;7.20;2.50;;;29.60;97.90;;;;;;5095395;28;20115;-68
2023/08/22 09:53:01;;;;;;;7.47;1.92;;;29.80;97.20;;;;;;5095275;28;20032;-68
2023/08/22 09:55:28;;;;;;;7.70;2.05;;;29.50;97.30;;;;;;5095314;28;20103;-69
2023/08/22 09:57:54;;;;;;;6.63;2.28;;;29.00;97.40;;;;;;5094360;28;20039;-69
2023/08/22 10:00:19;;;;;;;5.43;1.63;;;29.20;97.60;;;;;;5093465;28;20036;-67
2023/08/22 10:02:48;;;;;;;8.65;2.08;;;29.50;96.90;;;;;;5094795;28;20463;-67
2023/08/22 10:05:14;;;;;;;7.68;2.42;;;29.50;97.00;;;;;;5094613;28;20530;-67
2023/08/22 10:07:40;;;;;;;5.55;2.00;;;29.50;96.90;;;;;;5094830;28;20032;-67
2023/08/22 10:10:06;;;;;;;5.07;1.90;;;30.00;96.70;;;;;;5094698;28;20022;-67
2023/08/22 10:12:33;;;;;;;7.78;2.47;;;30.20;95.90;;;;;;5094273;28;20040;-69
2023/08/22 10:15:03;;;;;;;8.45;2.35;;;29.80;96.00;;;;;;5095016;28;20039;-68
2023/08/22 10:17:29;;;;;;;7.68;2.50;;;29.30;96.70;;;;;;5094685;28;20110;-68
2023/08/22 10:20:04;;;;;;;12.40;3.85;;;28.80;97.30;;;;;;5096175;28;20123;-68
2023/08/22 10:22:33;;;;;;;13.43;3.35;;;28.60;97.80;;;;;;5115048;28;20119;-69
2023/08/22 10:25:06;;;;;;;11.82;3.35;;;28.50;97.60;;;;;;5113869;28;20030;-68
2023/08/22 10:27:35;;;;;;;6.15;2.72;;;28.10;98.00;;;;;;5114327;28;20046;-68
2023/08/22 10:30:12;;;;;;;10.32;3.33;;;27.60;98.80;;;;;;5114701;28;20024;-68
2023/08/22 10:32:38;;;;;;;9.98;2.60;;;27.30;99.10;;;;;;5113918;28;20044;-68
2023/08/22 10:35:22;;;;;;;8.55;2.58;;;27.10;99.20;;;;;;5107836;28;20031;-69
2023/08/22 10:37:50;;;;;;;7.38;2.33;;;27.60;98.80;;;;;;5104320;28;20055;-70
2023/08/22 10:40:33;;;;;;;12.10;2.60;;;28.40;98.10;;;;;;5097713;28;20429;-68
2023/08/22 10:43:10;;;;;;;7.30;2.63;;;28.40;97.70;;;;;;5091261;28;20043;-68
2023/08/22 10:45:46;;;;;;;7.45;2.80;;;28.10;97.90;;;;;;5093665;28;20036;-69
2023/08/22 10:48:13;;;;;;;6.97;2.33;;;27.60;98.40;;;;;;5109855;28;20043;-67
2023/08/22 10:50:43;;;;;;;8.93;2.80;;;27.50;98.50;;;;;;5114017;28;20027;-69
2023/08/22 10:53:23;;;;;;;9.25;3.95;;;27.60;98.50;;;;;;5113676;28;20030;-71
2023/08/22 10:55:49;;;;;;;7.88;2.72;;;28.10;98.00;;;;;;5114544;28;20142;-68
2023/08/22 10:58:37;;;;;;;10.23;3.45;;;28.70;97.70;;;;;;5114153;28;20046;-70
2023/08/22 11:01:06;;;;;;;9.50;3.20;;;29.40;97.10;;;;;;5114029;28;20035;-70
2023/08/22 11:03:32;;;;;;;6.55;2.22;;;29.60;96.50;;;;;;5113731;28;20227;-68
2023/08/22 11:05:58;;;;;;;9.82;2.55;;;29.60;96.50;;;;;;5114162;28;20078;-68
2023/08/22 11:08:23;;;;;;;6.88;2.42;;;29.40;96.50;;;;;;5113873;28;20116;-69
2023/08/22 11:10:49;;;;;;;5.13;2.00;;;29.30;96.80;;;;;;5113884;28;20032;-68
2023/08/22 11:13:15;;;;;;;5.93;2.38;;;28.90;96.80;;;;;;5113411;28;20027;-68
2023/08/22 11:15:41;;;;;;;9.57;2.13;;;28.80;96.80;;;;;;5113996;28;20031;-69
2023/08/22 11:18:06;;;;;;;6.18;1.70;;;28.80;96.90;;;;;;5113736;28;20096;-69
2023/08/22 11:20:32;;;;;;;8.20;1.83;;;28.80;96.70;;;;;;5113895;28;20027;-68
2023/08/22 11:22:57;;;;;;;4.82;1.60;;;28.50;97.00;;;;;;5113626;28;20063;-69
2023/08/22 11:25:25;;;;;;;6.95;2.75;;;28.50;96.90;;;;;;5113462;28;20030;-69
2023/08/22 11:27:51;;;;;;;7.70;1.90;;;28.80;97.20;;;;;;5113841;28;20031;-68
2023/08/22 11:30:18;;;;;;;4.20;2.10;;;29.70;96.30;;;;;;5113536;28;20024;-69
2023/08/22 11:32:44;;;;;;;7.85;1.95;;;30.70;95.20;;;;;;5113661;28;20463;-68
2023/08/22 11:35:11;;;;;;;7.93;2.03;;;31.20;94.70;;;;;;5114188;28;20031;-69
2023/08/22 11:37:41;;;;;;;7.03;2.00;;;31.80;93.90;;;;;;5113667;28;20036;-68
2023/08/22 11:40:10;;;;;;;9.95;2.00;;;32.20;93.70;;;;;;5112945;28;20408;-69
2023/08/22 11:42:37;;;;;;;6.53;1.65;;;32.60;93.20;;;;;;5113577;28;20080;-69
2023/08/22 11:45:10;;;;;;;6.75;1.85;;;33.40;92.60;;;;;;5113760;28;20056;-69
2023/08/22 11:47:49;;;;;;;4.82;1.63;;;34.20;91.50;;;;;;5113592;28;20024;-69
2023/08/22 11:50:25;;;;;;;6.45;1.73;;;34.10;91.20;;;;;;5113680;28;20450;-69
2023/08/22 11:52:56;;;;;;;7.00;2.40;;;33.50;91.80;;;;;;5090245;28;20034;-69
2023/08/22 11:55:26;;;;;;;;;;;33.30;91.80;;;;;;5093571;28;20054;-68
2023/08/22 11:58:03;;;;;;;5.13;1.70;;;33.10;91.90;;;;;;5109739;28;19911;-68
2023/08/22 12:00:31;;;;;;;6.05;2.10;;;33.50;91.90;;;;;;5112848;28;20024;-69
2023/08/22 12:02:59;;;;;;;6.93;2.35;;;34.20;91.00;;;;;;5112808;28;20075;-69
2023/08/22 12:05:45;;;;;;;5.85;1.77;;;34.90;90.50;;;;;;5113143;28;20046;-69
2023/08/22 12:08:11;;;;;;;7.30;2.08;;;35.60;89.90;;;;;;5112959;28;20103;-70
2023/08/22 12:10:49;;;;;;;7.18;1.73;;;35.80;89.00;;;;;;5113013;28;20441;-70
2023/08/22 12:13:17;;;;;;;5.07;1.88;;;35.10;89.60;;;;;;5112962;28;20070;-71
2023/08/22 12:15:43;;;;;;;6.38;1.90;;;34.50;90.30;;;;;;5111849;28;20028;-69
2023/08/22 12:18:10;;;;;;;5.57;2.67;;;34.10;90.50;;;;;;5112568;28;20028;-70
2023/08/22 12:20:38;;;;;;;3.63;2.10;;;34.30;90.70;;;;;;5113279;28;20038;-69
2023/08/22 12:23:04;;;;;;;4.25;2.00;;;34.40;89.90;;;;;;5112875;28;20038;-69
2023/08/22 12:25:30;;;;;;;4.82;1.95;;;34.00;90.30;;;;;;5112948;28;20023;-69
2023/08/22 12:27:55;;;;;;;7.05;1.90;;;33.50;90.40;;;;;;5111964;28;20110;-70
2023/08/22 12:30:21;;;;;;;7.07;2.15;;;33.30;90.70;;;;;;5112791;28;20028;-68
2023/08/22 12:32:47;;;;;;;4.40;1.63;;;32.60;91.30;;;;;;5112789;28;20044;-68